Terminal Aerodrome Forecast
Issued by NWS

Home | Current Version | Previous Version | Text Only | Print | Product List | Glossary On
Versions: 1 2 3 4 5 6 7 8 9 10 11 12 13 14 15 16 17 18 19 20 21 22 23 24 25 26 27 28 29 30 31 32 33 34 35 36 37 38
000
FTUS44 KLIX 242300
TAFHUM
TAF
KHUM 242328Z 2500/2524 30012KT P6SM SCT050 SCT080
     FM250400 30009KT P6SM FEW250
     FM250900 VRB03KT P6SM SKC
     FM251900 16006KT P6SM SKC=

USA.gov is the U.S. government's official web portal to all federal, state and local government web resources and services.